Time;durP1;ratioP1;P1;durP2;ratioP2;P2;SDS_P1;SDS_P2;PMS_P1;PMS_P2;Temp;Humidity;BMP_temperature;BMP_pressure;BME280_temperature;BME280_humidity;BME280_pressure;Samples;Min_cycle;Max_cycle;Signal;HPM_P1;HPM_P2
2023/05/21 00:01:02;;;;;;;;;7.25;7.00;;;;;;;;5089504;28;8795;-79
2023/05/21 00:03:29;;;;;;;;;4.00;4.00;;;;;;;;5089339;28;8974;-80
2023/05/21 00:05:54;;;;;;;;;6.00;4.00;;;;;;;;5089534;28;10746;-79
2023/05/21 00:08:19;;;;;;;;;6.00;4.00;;;;;;;;5089256;28;10586;-78
2023/05/21 00:10:45;;;;;;;;;5.25;4.00;;;;;;;;5089626;28;8760;-79
2023/05/21 00:13:10;;;;;;;;;5.50;5.50;;;;;;;;5088045;28;8835;-79
2023/05/21 00:15:35;;;;;;;;;4.00;4.00;;;;;;;;5090081;28;8828;-79
2023/05/21 00:18:01;;;;;;;;;7.75;5.00;;;;;;;;5089666;28;8945;-80
2023/05/21 00:20:28;;;;;;;;;6.00;3.50;;;;;;;;5094143;28;8812;-80
2023/05/21 00:22:53;;;;;;;;;6.50;3.75;;;;;;;;5109472;28;9562;-78
2023/05/21 00:25:18;;;;;;;;;3.75;3.00;;;;;;;;5109696;28;10611;-80
2023/05/21 00:27:44;;;;;;;;;4.50;3.50;;;;;;;;5109771;28;8800;-79
2023/05/21 00:30:09;;;;;;;;;7.00;4.00;;;;;;;;5110013;28;8785;-79
2023/05/21 00:32:35;;;;;;;;;4.00;2.25;;;;;;;;5109380;28;8842;-79
2023/05/21 00:35:01;;;;;;;;;4.00;3.25;;;;;;;;5108345;28;8824;-79
2023/05/21 00:37:31;;;;;;;;;4.00;4.00;;;;;;;;5109246;28;10517;-78
2023/05/21 00:39:56;;;;;;;;;6.50;4.00;;;;;;;;5109306;28;10779;-80
2023/05/21 00:42:26;;;;;;;;;7.00;3.00;;;;;;;;5109542;28;10586;-79
2023/05/21 00:44:53;;;;;;;;;3.75;3.75;;;;;;;;5108173;28;9574;-79
2023/05/21 00:47:20;;;;;;;;;7.50;5.00;;;;;;;;5109493;28;10651;-79
2023/05/21 00:49:47;;;;;;;;;4.00;4.00;;;;;;;;5109699;28;10573;-80
2023/05/21 00:52:12;;;;;;;;;6.50;6.25;;;;;;;;5109055;28;11428;-79
2023/05/21 00:54:38;;;;;;;;;6.50;4.25;;;;;;;;5109386;28;10556;-80
2023/05/21 00:57:03;;;;;;;;;4.25;3.00;;;;;;;;5109886;28;8955;-79
2023/05/21 00:59:30;;;;;;;;;5.00;3.75;;;;;;;;5110565;28;8858;-79
2023/05/21 01:01:55;;;;;;;;;4.50;4.50;;;;;;;;5109849;28;9005;-80
2023/05/21 01:04:24;;;;;;;;;7.00;6.00;;;;;;;;5109488;28;10627;-77
2023/05/21 01:06:52;;;;;;;;;4.00;4.00;;;;;;;;5107864;28;8800;-78
2023/05/21 01:09:17;;;;;;;;;3.75;3.75;;;;;;;;5109114;28;10591;-81
2023/05/21 01:11:45;;;;;;;;;7.50;6.00;;;;;;;;5108876;28;11495;-81
2023/05/21 01:14:11;;;;;;;;;6.50;6.50;;;;;;;;5109399;28;8836;-81
2023/05/21 01:16:38;;;;;;;;;9.25;4.50;;;;;;;;5111917;28;10689;-82
2023/05/21 01:19:04;;;;;;;;;6.25;3.00;;;;;;;;5113443;28;10770;-81
2023/05/21 01:21:29;;;;;;;;;8.25;6.75;;;;;;;;5113409;28;10939;-81
2023/05/21 01:23:55;;;;;;;;;7.00;4.50;;;;;;;;5113509;28;8800;-81
2023/05/21 01:26:20;;;;;;;;;8.25;6.00;;;;;;;;5112943;28;9972;-81
2023/05/21 01:28:45;;;;;;;;;11.00;7.00;;;;;;;;5113443;28;9535;-83
2023/05/21 01:31:17;;;;;;;;;9.25;6.25;;;;;;;;5113359;28;8793;-82
2023/05/21 01:33:46;;;;;;;;;6.50;6.50;;;;;;;;5111930;28;8809;-82
2023/05/21 01:36:17;;;;;;;;;8.00;8.00;;;;;;;;5113263;27;10817;-82
2023/05/21 01:39:09;;;;;;;;;7.00;6.00;;;;;;;;5113143;28;10990;-82
2023/05/21 01:41:37;;;;;;;;;8.75;7.00;;;;;;;;5109160;28;10731;-83
2023/05/21 01:44:04;;;;;;;;;6.50;4.50;;;;;;;;5111388;28;10892;-81
2023/05/21 01:46:32;;;;;;;;;12.75;8.00;;;;;;;;5112838;27;10838;-82
2023/05/21 01:48:57;;;;;;;;;8.25;8.00;;;;;;;;5111541;28;11039;-80
2023/05/21 01:51:23;;;;;;;;;5.50;5.00;;;;;;;;5112899;28;10957;-82
2023/05/21 01:53:48;;;;;;;;;4.50;4.50;;;;;;;;5112269;28;9487;-81
2023/05/21 01:56:14;;;;;;;;;6.00;4.00;;;;;;;;5112840;28;8807;-82
2023/05/21 01:58:40;;;;;;;;;7.75;5.50;;;;;;;;5112713;28;8793;-81
2023/05/21 02:01:06;;;;;;;;;13.00;7.00;;;;;;;;5112587;28;10741;-81
2023/05/21 02:03:31;;;;;;;;;8.50;7.00;;;;;;;;5112245;27;8786;-81
2023/05/21 02:05:57;;;;;;;;;10.00;7.75;;;;;;;;5112692;28;8809;-80
2023/05/21 02:08:22;;;;;;;;;8.00;8.00;;;;;;;;5112573;28;9468;-79
2023/05/21 02:10:48;;;;;;;;;12.00;7.50;;;;;;;;5113173;28;8823;-81
2023/05/21 02:13:13;;;;;;;;;8.00;7.00;;;;;;;;5112912;28;8889;-81
2023/05/21 02:15:39;;;;;;;;;8.00;7.75;;;;;;;;5121451;22;8849;-73
2023/05/21 02:18:04;;;;;;;;;6.50;6.50;;;;;;;;5034284;28;8846;-73
2023/05/21 02:20:33;;;;;;;;;7.25;7.00;;;;;;;;5057590;28;8885;-73
2023/05/21 02:22:58;;;;;;;;;16.75;12.00;;;;;;;;5072454;28;8899;-74
2023/05/21 02:25:24;;;;;;;;;11.25;11.25;;;;;;;;5072463;28;11258;-75
2023/05/21 02:27:52;;;;;;;;;10.25;7.50;;;;;;;;5053928;28;9535;-75
2023/05/21 02:30:18;;;;;;;;;15.50;12.50;;;;;;;;5072984;28;8891;-73
2023/05/21 02:32:44;;;;;;;;;15.00;11.00;;;;;;;;5071725;28;11420;-73
2023/05/21 02:35:10;;;;;;;;;22.50;16.25;;;;;;;;5071696;28;11149;-73
2023/05/21 02:37:36;;;;;;;;;17.00;16.00;;;;;;;;5071376;28;8768;-73
2023/05/21 02:40:02;;;;;;;;;17.75;15.00;;;;;;;;5071024;28;11418;-73
2023/05/21 02:42:28;;;;;;;;;19.50;16.00;;;;;;;;5038601;28;11509;-74
2023/05/21 02:44:53;;;;;;;;;19.75;18.00;;;;;;;;5021332;28;11458;-73
2023/05/21 02:47:19;;;;;;;;;18.25;17.25;;;;;;;;5040921;28;8893;-73
2023/05/21 02:49:45;;;;;;;;;23.75;18.75;;;;;;;;5040495;28;8902;-73
2023/05/21 02:52:10;;;;;;;;;18.75;17.00;;;;;;;;5043606;28;8830;-74
2023/05/21 02:54:35;;;;;;;;;18.00;18.00;;;;;;;;5040964;28;9900;-73
2023/05/21 02:57:01;;;;;;;;;18.25;15.00;;;;;;;;5039469;28;8837;-73
2023/05/21 02:59:26;;;;;;;;;20.25;18.25;;;;;;;;5039434;28;8806;-73
2023/05/21 03:01:51;;;;;;;;;17.50;15.00;;;;;;;;5041093;28;8803;-74
2023/05/21 03:04:17;;;;;;;;;16.25;16.00;;;;;;;;5039263;28;8788;-73
2023/05/21 03:06:43;;;;;;;;;16.25;12.75;;;;;;;;5040059;28;8802;-73
2023/05/21 03:09:08;;;;;;;;;12.50;12.00;;;;;;;;5041022;28;8902;-73
2023/05/21 03:11:33;;;;;;;;;17.00;13.25;;;;;;;;5038525;28;12250;-73
2023/05/21 03:13:59;;;;;;;;;17.00;14.50;;;;;;;;5040125;28;8795;-73
2023/05/21 03:16:24;;;;;;;;;18.50;15.00;;;;;;;;5039292;28;8824;-73
2023/05/21 03:18:49;;;;;;;;;17.00;15.75;;;;;;;;5038474;28;8848;-73
2023/05/21 03:21:14;;;;;;;;;19.00;15.25;;;;;;;;5042987;28;8982;-73
2023/05/21 03:23:41;;;;;;;;;17.50;14.00;;;;;;;;5039160;28;8828;-73
2023/05/21 03:26:07;;;;;;;;;17.00;14.00;;;;;;;;5038816;28;9691;-73
2023/05/21 03:28:32;;;;;;;;;21.00;15.75;;;;;;;;5040448;28;11421;-72
2023/05/21 03:30:58;;;;;;;;;18.00;16.00;;;;;;;;5038764;28;8809;-72
2023/05/21 03:33:23;;;;;;;;;18.25;16.00;;;;;;;;5038815;28;8837;-73
2023/05/21 03:35:49;;;;;;;;;13.00;12.00;;;;;;;;5040161;28;8927;-73
2023/05/21 03:38:15;;;;;;;;;24.75;22.00;;;;;;;;5037174;28;8869;-73
2023/05/21 03:40:40;;;;;;;;;22.50;18.50;;;;;;;;5039412;28;9114;-73
2023/05/21 03:43:05;;;;;;;;;21.25;19.50;;;;;;;;5021635;28;8793;-73
2023/05/21 03:45:31;;;;;;;;;21.00;19.75;;;;;;;;5038051;28;8804;-73
2023/05/21 03:47:56;;;;;;;;;25.25;23.00;;;;;;;;5039902;28;8909;-73
2023/05/21 03:50:21;;;;;;;;;26.50;24.50;;;;;;;;5043333;28;8808;-73
2023/05/21 03:52:46;;;;;;;;;20.50;20.50;;;;;;;;5038199;28;8794;-72
2023/05/21 03:55:12;;;;;;;;;24.50;22.50;;;;;;;;5039955;28;8814;-72
2023/05/21 03:57:37;;;;;;;;;22.00;21.25;;;;;;;;5038525;28;8800;-73
2023/05/21 04:00:04;;;;;;;;;22.50;22.50;;;;;;;;5038235;28;8882;-72
2023/05/21 04:02:29;;;;;;;;;25.50;22.00;;;;;;;;5037982;28;8790;-72
2023/05/21 04:04:54;;;;;;;;;24.00;22.25;;;;;;;;5039419;28;11496;-72
2023/05/21 04:07:21;;;;;;;;;26.00;21.75;;;;;;;;5020319;28;9543;-72
2023/05/21 04:09:46;;;;;;;;;22.75;19.50;;;;;;;;5020555;28;8810;-72
2023/05/21 04:12:11;;;;;;;;;28.75;19.25;;;;;;;;5037080;28;12296;-72
2023/05/21 04:14:37;;;;;;;;;21.25;18.75;;;;;;;;5039363;28;8838;-72
2023/05/21 04:17:05;;;;;;;;;27.00;23.25;;;;;;;;5038594;28;8809;-73
2023/05/21 04:19:31;;;;;;;;;25.25;22.50;;;;;;;;5037709;28;8797;-72
2023/05/21 04:21:57;;;;;;;;;27.75;26.00;;;;;;;;5044290;28;12309;-73
2023/05/21 04:24:22;;;;;;;;;21.50;17.75;;;;;;;;5039290;28;8811;-72
2023/05/21 04:26:48;;;;;;;;;26.25;21.25;;;;;;;;5039085;28;8788;-72
2023/05/21 04:29:16;;;;;;;;;18.00;18.00;;;;;;;;5037606;28;8839;-73
2023/05/21 04:31:42;;;;;;;;;26.25;22.50;;;;;;;;5038573;28;11426;-74
2023/05/21 04:34:07;;;;;;;;;28.25;24.75;;;;;;;;5038950;28;11439;-72
2023/05/21 04:36:32;;;;;;;;;26.00;23.75;;;;;;;;5037374;28;8805;-72
2023/05/21 04:38:58;;;;;;;;;27.50;21.50;;;;;;;;5021186;28;8807;-72
2023/05/21 04:41:23;;;;;;;;;28.75;24.00;;;;;;;;5038113;28;8832;-72
2023/05/21 04:43:53;;;;;;;;;27.75;24.75;;;;;;;;5037575;28;8799;-72
2023/05/21 04:46:18;;;;;;;;;25.75;22.50;;;;;;;;5022755;28;8854;-72
2023/05/21 04:48:45;;;;;;;;;27.00;26.75;;;;;;;;5038112;28;12190;-72
2023/05/21 04:51:10;;;;;;;;;24.75;23.00;;;;;;;;5025240;28;8813;-72
2023/05/21 04:53:36;;;;;;;;;30.50;27.75;;;;;;;;5037112;28;11440;-72
2023/05/21 04:56:02;;;;;;;;;24.50;24.00;;;;;;;;5020448;28;8806;-72
2023/05/21 04:58:28;;;;;;;;;26.50;22.75;;;;;;;;5037851;28;8844;-72
2023/05/21 05:00:53;;;;;;;;;27.75;26.25;;;;;;;;5030176;28;11891;-69
2023/05/21 05:03:18;;;;;;;;;27.75;25.75;;;;;;;;5033565;28;8872;-69
2023/05/21 05:05:43;;;;;;;;;31.00;27.75;;;;;;;;5029438;28;8842;-71
2023/05/21 05:08:09;;;;;;;;;26.75;26.75;;;;;;;;5029303;28;8777;-71
2023/05/21 05:10:35;;;;;;;;;34.75;29.50;;;;;;;;5029161;28;8808;-71
2023/05/21 05:13:00;;;;;;;;;21.00;20.00;;;;;;;;5029589;28;9512;-71
2023/05/21 05:15:25;;;;;;;;;25.00;24.25;;;;;;;;5029640;28;8784;-73
2023/05/21 05:17:51;;;;;;;;;27.50;24.25;;;;;;;;5013597;28;9587;-73
2023/05/21 05:20:17;;;;;;;;;30.00;26.50;;;;;;;;5018865;28;8820;-77
2023/05/21 05:22:42;;;;;;;;;28.75;26.50;;;;;;;;5069364;28;8906;-79
2023/05/21 05:25:07;;;;;;;;;28.00;25.25;;;;;;;;5069044;28;8865;-78
2023/05/21 05:27:32;;;;;;;;;29.00;27.00;;;;;;;;5069400;28;8915;-78
2023/05/21 05:29:58;;;;;;;;;28.00;27.00;;;;;;;;5069518;28;8849;-77
2023/05/21 05:32:23;;;;;;;;;31.25;28.25;;;;;;;;5069435;28;8812;-77
2023/05/21 05:34:48;;;;;;;;;32.25;25.75;;;;;;;;5069144;28;8966;-77
2023/05/21 05:37:14;;;;;;;;;31.50;28.25;;;;;;;;5068985;28;8873;-77
2023/05/21 05:39:39;;;;;;;;;28.75;26.25;;;;;;;;5069177;28;9506;-77
2023/05/21 05:42:04;;;;;;;;;30.25;30.00;;;;;;;;5069234;28;8789;-77
2023/05/21 05:44:29;;;;;;;;;28.50;25.50;;;;;;;;5069495;28;8792;-76
2023/05/21 05:46:55;;;;;;;;;24.25;23.25;;;;;;;;5051090;28;8918;-78
2023/05/21 05:49:20;;;;;;;;;26.75;23.75;;;;;;;;5069290;28;8803;-78
2023/05/21 05:51:45;;;;;;;;;29.75;27.00;;;;;;;;5069750;28;8796;-78
2023/05/21 05:54:10;;;;;;;;;28.75;27.50;;;;;;;;5068456;28;8843;-79
2023/05/21 05:56:36;;;;;;;;;31.75;30.50;;;;;;;;5069254;28;8765;-78
2023/05/21 05:59:01;;;;;;;;;30.25;27.00;;;;;;;;5051342;28;8903;-78
2023/05/21 06:01:26;;;;;;;;;27.75;27.25;;;;;;;;5051277;28;8792;-79
2023/05/21 06:03:52;;;;;;;;;34.75;30.25;;;;;;;;5073676;28;8874;-79
2023/05/21 06:06:20;;;;;;;;;30.25;28.00;;;;;;;;5072791;28;8781;-79
2023/05/21 06:08:45;;;;;;;;;31.50;27.75;;;;;;;;5072418;28;8946;-79
2023/05/21 06:11:11;;;;;;;;;29.00;28.25;;;;;;;;5072652;28;11515;-78
2023/05/21 06:13:36;;;;;;;;;30.00;24.50;;;;;;;;5072667;28;8803;-76
2023/05/21 06:16:01;;;;;;;;;32.25;27.75;;;;;;;;5072525;28;8935;-78
2023/05/21 06:18:27;;;;;;;;;35.00;33.25;;;;;;;;5046021;28;8818;-80
2023/05/21 06:20:52;;;;;;;;;35.75;29.25;;;;;;;;5060928;28;8772;-80
2023/05/21 06:23:20;;;;;;;;;30.75;28.25;;;;;;;;5049644;28;8790;-79
2023/05/21 06:25:48;;;;;;;;;28.50;27.25;;;;;;;;5046057;28;8788;-79
2023/05/21 06:28:14;;;;;;;;;27.25;25.25;;;;;;;;5029648;28;11443;-80
2023/05/21 06:30:39;;;;;;;;;33.00;27.75;;;;;;;;5046252;28;12194;-76
2023/05/21 06:33:05;;;;;;;;;27.25;26.50;;;;;;;;5028858;28;8810;-73
2023/05/21 06:35:31;;;;;;;;;22.00;20.25;;;;;;;;5038593;28;8855;-72
2023/05/21 06:37:56;;;;;;;;;34.75;31.50;;;;;;;;5043263;28;9564;-73
2023/05/21 06:40:21;;;;;;;;;32.00;27.25;;;;;;;;5030999;28;8804;-71
2023/05/21 06:42:49;;;;;;;;;32.00;27.75;;;;;;;;5035227;28;9930;-72
2023/05/21 06:45:15;;;;;;;;;32.25;30.25;;;;;;;;5039924;28;8816;-69
2023/05/21 06:47:40;;;;;;;;;34.00;28.75;;;;;;;;5033505;28;12221;-70
2023/05/21 06:50:06;;;;;;;;;30.75;30.25;;;;;;;;5035187;28;8806;-69
2023/05/21 06:52:31;;;;;;;;;30.75;28.75;;;;;;;;5051801;28;8825;-70
2023/05/21 06:54:56;;;;;;;;;36.50;29.25;;;;;;;;5044687;28;8842;-69
2023/05/21 06:57:21;;;;;;;;;27.75;24.50;;;;;;;;5051610;28;8774;-69
2023/05/21 06:59:47;;;;;;;;;29.75;27.00;;;;;;;;5051490;28;8840;-69
2023/05/21 07:02:12;;;;;;;;;32.00;29.25;;;;;;;;5028558;28;8815;-69
2023/05/21 07:04:37;;;;;;;;;33.75;30.00;;;;;;;;5031850;28;8794;-70
2023/05/21 07:07:03;;;;;;;;;31.25;27.00;;;;;;;;5051012;28;9552;-70
2023/05/21 07:09:30;;;;;;;;;30.00;28.50;;;;;;;;5033291;28;8794;-70
2023/05/21 07:11:55;;;;;;;;;30.50;28.25;;;;;;;;5040756;28;8803;-71
2023/05/21 07:14:20;;;;;;;;;27.50;27.25;;;;;;;;5031572;28;11488;-70
2023/05/21 07:16:49;;;;;;;;;29.75;26.75;;;;;;;;5051261;28;9564;-71
2023/05/21 07:19:14;;;;;;;;;32.50;31.25;;;;;;;;5051261;28;8807;-70
2023/05/21 07:21:40;;;;;;;;;29.50;28.00;;;;;;;;5051604;28;11302;-69
2023/05/21 07:24:05;;;;;;;;;25.50;25.50;;;;;;;;5043425;28;8810;-69
2023/05/21 07:26:30;;;;;;;;;31.00;27.25;;;;;;;;5050898;28;8863;-69
2023/05/21 07:28:56;;;;;;;;;33.50;30.00;;;;;;;;5050891;28;8794;-71
2023/05/21 07:31:21;;;;;;;;;33.00;27.50;;;;;;;;5050772;28;8799;-69
2023/05/21 07:33:46;;;;;;;;;33.00;25.75;;;;;;;;5053067;28;8812;-71
2023/05/21 07:36:12;;;;;;;;;28.00;27.00;;;;;;;;5070495;28;8808;-70
2023/05/21 07:38:38;;;;;;;;;28.50;26.00;;;;;;;;5070743;28;8894;-69
2023/05/21 07:41:04;;;;;;;;;27.25;25.00;;;;;;;;5052709;28;8918;-69
2023/05/21 07:43:32;;;;;;;;;26.50;26.50;;;;;;;;5065806;28;10376;-69
2023/05/21 07:45:57;;;;;;;;;27.00;25.50;;;;;;;;5050566;28;9070;-70
2023/05/21 07:48:26;;;;;;;;;27.75;24.25;;;;;;;;5032442;28;10019;-72
2023/05/21 07:50:55;;;;;;;;;25.75;23.75;;;;;;;;5058098;28;8780;-73
2023/05/21 07:53:20;;;;;;;;;24.25;24.25;;;;;;;;5066626;28;9781;-72
2023/05/21 07:55:48;;;;;;;;;26.75;24.00;;;;;;;;5042976;28;9595;-72
2023/05/21 07:58:17;;;;;;;;;23.50;20.75;;;;;;;;5039587;28;8810;-74
2023/05/21 08:00:49;;;;;;;;;28.00;25.00;;;;;;;;5050115;28;9479;-72
2023/05/21 08:03:15;;;;;;;;;23.50;21.25;;;;;;;;5048733;28;9561;-73
2023/05/21 08:05:47;;;;;;;;;27.00;26.75;;;;;;;;5067976;28;9425;-73
2023/05/21 08:08:13;;;;;;;;;25.50;24.00;;;;;;;;5069482;28;9396;-74
2023/05/21 08:10:38;;;;;;;;;26.33;22.33;;;;;;;;5069886;28;9404;-75
2023/05/21 08:13:03;;;;;;;;;29.75;27.00;;;;;;;;5051833;28;11648;-73
2023/05/21 08:15:29;;;;;;;;;39.00;33.50;;;;;;;;5048401;28;8840;-73
2023/05/21 08:17:54;;;;;;;;;28.50;27.50;;;;;;;;5059496;28;8839;-73
2023/05/21 08:20:20;;;;;;;;;21.67;21.00;;;;;;;;5053579;28;8874;-71
2023/05/21 08:22:45;;;;;;;;;20.67;20.67;;;;;;;;5069591;28;8788;-70
2023/05/21 08:25:10;;;;;;;;;24.67;22.67;;;;;;;;5050202;28;8810;-73
2023/05/21 08:27:36;;;;;;;;;26.00;23.67;;;;;;;;5049564;28;8810;-73
2023/05/21 08:30:01;;;;;;;;;22.67;18.67;;;;;;;;5031905;28;9003;-72
2023/05/21 08:32:27;;;;;;;;;25.33;23.67;;;;;;;;5031699;28;8818;-75
2023/05/21 08:34:52;;;;;;;;;25.33;23.00;;;;;;;;5031679;28;8900;-72
2023/05/21 08:37:18;;;;;;;;;24.33;21.67;;;;;;;;5050098;28;8798;-72
2023/05/21 08:39:43;;;;;;;;;22.00;21.00;;;;;;;;5049520;28;8956;-72
2023/05/21 08:42:18;;;;;;;;;20.33;19.00;;;;;;;;5049384;28;8859;-73
2023/05/21 08:44:46;;;;;;;;;21.75;19.00;;;;;;;;5047639;28;8972;-76
2023/05/21 08:47:12;;;;;;;;;28.50;22.50;;;;;;;;5049241;28;8900;-70
2023/05/21 08:49:38;;;;;;;;;24.50;23.25;;;;;;;;5030989;28;8814;-72
2023/05/21 08:52:03;;;;;;;;;21.33;18.00;;;;;;;;5067262;28;8864;-72
2023/05/21 08:54:29;;;;;;;;;21.00;19.67;;;;;;;;5063390;28;8808;-73
2023/05/21 08:56:55;;;;;;;;;28.33;24.33;;;;;;;;5057577;28;8836;-73
2023/05/21 08:59:21;;;;;;;;;22.00;21.50;;;;;;;;5048705;28;8806;-73
2023/05/21 09:01:48;;;;;;;;;21.50;20.50;;;;;;;;5049174;28;8786;-72
2023/05/21 09:04:15;;;;;;;;;19.50;18.25;;;;;;;;5047723;28;8825;-73
2023/05/21 09:06:41;;;;;;;;;23.25;20.75;;;;;;;;5049076;28;8805;-75
2023/05/21 09:09:14;;;;;;;;;22.67;20.33;;;;;;;;5048908;28;8791;-72
2023/05/21 09:11:41;;;;;;;;;20.75;19.25;;;;;;;;5031146;28;8814;-71
2023/05/21 09:14:06;;;;;;;;;18.50;17.00;;;;;;;;5029793;28;8798;-74
2023/05/21 09:16:31;;;;;;;;;21.00;20.00;;;;;;;;5049045;28;8853;-71
2023/05/21 09:18:57;;;;;;;;;24.33;22.67;;;;;;;;5049008;28;8810;-73
2023/05/21 09:21:26;;;;;;;;;26.00;22.67;;;;;;;;5061240;28;8788;-74
2023/05/21 09:23:55;;;;;;;;;21.00;19.50;;;;;;;;5062000;28;8798;-74
2023/05/21 09:26:23;;;;;;;;;23.50;22.25;;;;;;;;5068778;28;8816;-73
2023/05/21 09:28:50;;;;;;;;;21.75;20.50;;;;;;;;5068927;28;8781;-75
2023/05/21 09:31:15;;;;;;;;;22.50;22.50;;;;;;;;5068900;28;9655;-75
2023/05/21 09:33:47;;;;;;;;;24.00;24.00;;;;;;;;5062683;28;8818;-72
2023/05/21 09:36:12;;;;;;;;;24.25;22.00;;;;;;;;5068543;28;8792;-71
2023/05/21 09:38:37;;;;;;;;;23.00;21.33;;;;;;;;5072133;28;8869;-72
2023/05/21 09:41:06;;;;;;;;;24.00;21.67;;;;;;;;5072650;28;8815;-72
2023/05/21 09:43:31;;;;;;;;;23.00;22.33;;;;;;;;5051315;28;8911;-73
2023/05/21 09:45:57;;;;;;;;;22.00;21.00;;;;;;;;5070899;28;9118;-72
2023/05/21 09:48:32;;;;;;;;;20.67;19.00;;;;;;;;5070697;28;8899;-73
2023/05/21 09:51:12;;;;;;;;;21.25;18.50;;;;;;;;5069536;28;9579;-73
2023/05/21 09:53:44;;;;;;;;;23.33;20.00;;;;;;;;5046619;28;8960;-71
2023/05/21 09:56:10;;;;;;;;;23.50;22.00;;;;;;;;5052178;28;8890;-72
2023/05/21 09:58:35;;;;;;;;;17.33;17.33;;;;;;;;5052251;28;8956;-72
2023/05/21 10:01:00;;;;;;;;;17.00;16.00;;;;;;;;5052005;28;8883;-71
2023/05/21 10:03:29;;;;;;;;;17.33;16.33;;;;;;;;5050809;28;8828;-71
2023/05/21 10:05:57;;;;;;;;;35.00;32.67;;;;;;;;5051763;28;8854;-70
2023/05/21 10:08:24;;;;;;;;;29.33;29.00;;;;;;;;5033786;28;9435;-69
2023/05/21 10:10:50;;;;;;;;;21.00;20.75;;;;;;;;5052056;28;9182;-72
2023/05/21 10:13:17;;;;;;;;;21.67;20.00;;;;;;;;5050812;28;8798;-71
2023/05/21 10:18:23;;;;;;;;;21.25;19.50;;;;;;;;5050142;28;9669;-75
2023/05/21 10:20:50;;;;;;;;;21.25;20.00;;;;;;;;5051719;28;8834;-73
2023/05/21 10:23:16;;;;;;;;;22.75;19.75;;;;;;;;5049711;28;8794;-73
2023/05/21 10:25:44;;;;;;;;;19.75;19.25;;;;;;;;5051259;28;8822;-74
2023/05/21 10:28:14;;;;;;;;;19.00;17.25;;;;;;;;5051792;28;8909;-74
2023/05/21 10:30:40;;;;;;;;;25.33;23.33;;;;;;;;5051661;28;8888;-76
2023/05/21 10:33:10;;;;;;;;;43.25;36.25;;;;;;;;5051032;28;9251;-70
2023/05/21 10:35:39;;;;;;;;;19.00;19.00;;;;;;;;5049615;28;8826;-71
2023/05/21 10:38:05;;;;;;;;;22.33;20.67;;;;;;;;5051141;28;9195;-72
2023/05/21 10:40:30;;;;;;;;;17.33;17.00;;;;;;;;5051046;28;8966;-74
2023/05/21 10:43:19;;;;;;;;;20.33;17.67;;;;;;;;5033501;28;8961;-73
2023/05/21 10:45:50;;;;;;;;;24.33;21.33;;;;;;;;5004446;28;8826;-74
2023/05/21 10:48:15;;;;;;;;;23.00;22.67;;;;;;;;5050995;28;8860;-73
2023/05/21 10:50:50;;;;;;;;;21.33;20.33;;;;;;;;5050801;28;9031;-72
2023/05/21 10:53:21;;;;;;;;;22.00;20.33;;;;;;;;5033193;28;9599;-74
2023/05/21 10:55:57;;;;;;;;;19.67;19.67;;;;;;;;5051103;28;9123;-72
2023/05/21 10:58:41;;;;;;;;;21.33;21.33;;;;;;;;5050422;28;9070;-73
2023/05/21 11:01:07;;;;;;;;;23.33;21.67;;;;;;;;5051146;28;9645;-73
2023/05/21 11:03:33;;;;;;;;;23.00;22.00;;;;;;;;5051184;28;9014;-74
2023/05/21 11:06:00;;;;;;;;;20.50;19.75;;;;;;;;5050651;28;9564;-72
2023/05/21 11:08:26;;;;;;;;;23.00;22.00;;;;;;;;5050309;28;8923;-74
2023/05/21 11:10:54;;;;;;;;;24.00;22.00;;;;;;;;5050787;28;9016;-73
2023/05/21 11:13:20;;;;;;;;;24.00;21.33;;;;;;;;5032825;28;8892;-73
2023/05/21 11:15:58;;;;;;;;;23.33;19.67;;;;;;;;5029744;28;9199;-71
2023/05/21 11:18:23;;;;;;;;;22.33;20.67;;;;;;;;5050433;28;11656;-74
2023/05/21 11:20:54;;;;;;;;;23.67;20.67;;;;;;;;5032460;28;10022;-75
2023/05/21 11:23:20;;;;;;;;;21.33;21.33;;;;;;;;5049735;28;8830;-72
2023/05/21 11:26:01;;;;;;;;;23.67;21.67;;;;;;;;5031542;28;9372;-70
2023/05/21 11:28:33;;;;;;;;;23.00;19.00;;;;;;;;5050463;28;9686;-72
2023/05/21 11:31:16;;;;;;;;;21.00;20.67;;;;;;;;5050333;28;9961;-71
2023/05/21 11:33:41;;;;;;;;;24.00;20.00;;;;;;;;5050205;28;9186;-72
2023/05/21 11:36:10;;;;;;;;;26.33;23.67;;;;;;;;5050191;28;9319;-74
2023/05/21 11:38:36;;;;;;;;;22.00;22.00;;;;;;;;5032067;28;8850;-71
2023/05/21 11:41:08;;;;;;;;;24.33;22.33;;;;;;;;5049932;28;9241;-73
2023/05/21 11:43:33;;;;;;;;;22.33;22.33;;;;;;;;5049592;28;8783;-73
2023/05/21 11:45:58;;;;;;;;;18.00;17.00;;;;;;;;5031110;28;9540;-74
2023/05/21 11:48:27;;;;;;;;;22.00;22.00;;;;;;;;5031095;28;8822;-75
2023/05/21 11:50:52;;;;;;;;;24.75;23.50;;;;;;;;5031896;28;8852;-73
2023/05/21 11:53:18;;;;;;;;;26.00;24.00;;;;;;;;5049468;28;9443;-73
2023/05/21 11:55:46;;;;;;;;;18.33;18.33;;;;;;;;5049752;28;8830;-71
2023/05/21 11:58:18;;;;;;;;;31.00;30.00;;;;;;;;5049714;28;8933;-71
2023/05/21 12:00:43;;;;;;;;;30.00;30.00;;;;;;;;5027798;28;9936;-75
2023/05/21 12:03:12;;;;;;;;;31.25;29.25;;;;;;;;5049065;28;9948;-72
2023/05/21 12:05:47;;;;;;;;;25.50;23.75;;;;;;;;5049602;28;8960;-73
2023/05/21 12:08:12;;;;;;;;;27.00;22.67;;;;;;;;5049360;28;10161;-74
2023/05/21 12:10:38;;;;;;;;;24.25;22.50;;;;;;;;5031401;28;9300;-73
2023/05/21 12:13:05;;;;;;;;;25.75;24.75;;;;;;;;5049164;28;8830;-73
2023/05/21 12:15:30;;;;;;;;;21.67;19.00;;;;;;;;5048882;28;9444;-81
2023/05/21 12:17:56;;;;;;;;;20.00;19.33;;;;;;;;5049333;28;9384;-82
2023/05/21 12:20:22;;;;;;;;;22.33;19.00;;;;;;;;5049230;28;8826;-73
2023/05/21 12:22:49;;;;;;;;;22.33;19.00;;;;;;;;5049478;28;8817;-75
2023/05/21 12:25:18;;;;;;;;;22.33;19.00;;;;;;;;5048098;28;9415;-81
2023/05/21 12:27:45;;;;;;;;;22.33;21.00;;;;;;;;5047995;28;9229;-74
2023/05/21 12:30:10;;;;;;;;;23.67;20.67;;;;;;;;5047757;28;9302;-75
2023/05/21 12:32:41;;;;;;;;;20.00;17.33;;;;;;;;5047970;28;9312;-75
2023/05/21 12:35:18;;;;;;;;;20.33;20.00;;;;;;;;5047910;28;8812;-76
2023/05/21 12:37:44;;;;;;;;;27.33;22.33;;;;;;;;5045865;28;9218;-75
2023/05/21 12:40:10;;;;;;;;;21.67;21.67;;;;;;;;5044490;28;9410;-74
2023/05/21 12:42:36;;;;;;;;;20.33;19.00;;;;;;;;5048985;28;9645;-78
2023/05/21 12:45:05;;;;;;;;;16.33;16.33;;;;;;;;5049644;28;9444;-87
2023/05/21 12:47:31;;;;;;;;;24.75;22.50;;;;;;;;5049647;28;8931;-76
2023/05/21 12:49:57;;;;;;;;;21.00;19.50;;;;;;;;5049107;28;9436;-86
2023/05/21 12:52:23;;;;;;;;;23.00;22.25;;;;;;;;5049470;28;9568;-80
2023/05/21 12:54:50;;;;;;;;;27.50;24.00;;;;;;;;5049278;28;8925;-78
2023/05/21 12:57:16;;;;;;;;;23.00;21.33;;;;;;;;5048761;28;9364;-75
2023/05/21 12:59:45;;;;;;;;;25.00;21.00;;;;;;;;5030701;28;9372;-75
2023/05/21 13:02:20;;;;;;;;;19.33;18.67;;;;;;;;5047960;28;9347;-76
2023/05/21 13:04:46;;;;;;;;;21.00;19.67;;;;;;;;5046767;28;9335;-76
2023/05/21 13:07:11;;;;;;;;;23.50;21.50;;;;;;;;5048796;28;9288;-74
2023/05/21 13:09:36;;;;;;;;;22.25;21.25;;;;;;;;5048632;28;8819;-72
2023/05/21 13:12:02;;;;;;;;;26.25;25.25;;;;;;;;5051360;28;8818;-71
2023/05/21 13:14:27;;;;;;;;;24.25;23.50;;;;;;;;5052878;28;8818;-69
2023/05/21 13:16:52;;;;;;;;;25.25;21.00;;;;;;;;5069962;22;8873;-70
2023/05/21 13:19:18;;;;;;;;;28.25;26.25;;;;;;;;5057591;28;8827;-70
2023/05/21 13:21:43;;;;;;;;;24.75;22.25;;;;;;;;5074180;28;8899;-72
2023/05/21 13:24:09;;;;;;;;;24.00;23.00;;;;;;;;5072165;28;8861;-72
2023/05/21 13:26:34;;;;;;;;;22.25;19.50;;;;;;;;5073906;28;8936;-71
2023/05/21 13:28:59;;;;;;;;;20.50;18.00;;;;;;;;5073539;28;8803;-70
2023/05/21 13:31:25;;;;;;;;;27.75;24.50;;;;;;;;5071340;28;8956;-70
2023/05/21 13:33:50;;;;;;;;;24.75;23.25;;;;;;;;5053864;28;8793;-70
2023/05/21 13:36:15;;;;;;;;;21.75;19.75;;;;;;;;5053817;28;8870;-71
2023/05/21 13:38:40;;;;;;;;;31.50;23.50;;;;;;;;5053498;28;8813;-69
2023/05/21 13:41:06;;;;;;;;;25.25;22.75;;;;;;;;5057872;28;8809;-71
2023/05/21 13:43:31;;;;;;;;;25.75;24.00;;;;;;;;5062163;28;8809;-71
2023/05/21 13:45:56;;;;;;;;;25.50;23.00;;;;;;;;5061406;28;8821;-71
2023/05/21 13:48:22;;;;;;;;;23.25;21.50;;;;;;;;5064150;28;8790;-71
2023/05/21 13:50:47;;;;;;;;;24.00;21.00;;;;;;;;5063121;28;8809;-72
2023/05/21 13:53:12;;;;;;;;;21.00;20.00;;;;;;;;5062197;28;8814;-72
2023/05/21 13:55:38;;;;;;;;;29.00;25.25;;;;;;;;5063981;28;8803;-72
2023/05/21 13:58:03;;;;;;;;;24.75;23.25;;;;;;;;5062185;28;8785;-72
2023/05/21 14:00:29;;;;;;;;;27.50;24.75;;;;;;;;5062807;28;8779;-73
2023/05/21 14:02:54;;;;;;;;;25.00;20.25;;;;;;;;5063733;28;8825;-72
2023/05/21 14:05:19;;;;;;;;;25.00;24.00;;;;;;;;5061211;28;8841;-72
2023/05/21 14:07:47;;;;;;;;;21.50;20.75;;;;;;;;5062972;28;9552;-72
2023/05/21 14:10:12;;;;;;;;;24.75;23.00;;;;;;;;5063351;28;8797;-71
2023/05/21 14:12:37;;;;;;;;;20.50;19.00;;;;;;;;5061303;28;9645;-70
2023/05/21 14:15:03;;;;;;;;;23.50;21.25;;;;;;;;5063188;28;8799;-72
2023/05/21 14:17:28;;;;;;;;;25.25;24.00;;;;;;;;5062503;28;8813;-73
2023/05/21 14:19:54;;;;;;;;;23.50;22.75;;;;;;;;5064899;28;8781;-72
2023/05/21 14:22:19;;;;;;;;;23.50;20.00;;;;;;;;5063056;28;9565;-72
2023/05/21 14:24:45;;;;;;;;;25.00;23.00;;;;;;;;5061189;28;9567;-73
2023/05/21 14:27:11;;;;;;;;;25.75;22.25;;;;;;;;5062055;28;8803;-71
2023/05/21 14:29:36;;;;;;;;;19.00;18.67;;;;;;;;5063151;28;8771;-72